Time;durP1;ratioP1;P1;durP2;ratioP2;P2;SDS_P1;SDS_P2;PMS_P1;PMS_P2;Temp;Humidity;BMP_temperature;BMP_pressure;BME280_temperature;BME280_humidity;BME280_pressure;Samples;Min_cycle;Max_cycle;Signal;HPM_P1;HPM_P2
2022/01/07 00:00:23;;;;;;;39.10;20.63;;;3.00;99.90;;;;;;4973609;28;20486;-66
2022/01/07 00:02:54;;;;;;;40.03;21.20;;;2.90;99.90;;;;;;4973412;28;20492;-66
2022/01/07 00:05:26;;;;;;;39.60;22.40;;;3.00;99.90;;;;;;4973756;28;20558;-65
2022/01/07 00:07:57;;;;;;;40.03;21.40;;;2.90;99.90;;;;;;4973214;28;20478;-66
2022/01/07 00:10:25;;;;;;;46.07;21.83;;;2.90;99.90;;;;;;4973580;28;20822;-66
2022/01/07 00:12:54;;;;;;;37.83;21.30;;;2.90;99.90;;;;;;4973253;28;20481;-65
2022/01/07 00:15:22;;;;;;;39.17;21.20;;;2.80;99.90;;;;;;4973619;28;20889;-65
2022/01/07 00:17:51;;;;;;;35.83;21.67;;;2.90;99.90;;;;;;4972164;28;20483;-66
2022/01/07 00:20:20;;;;;;;42.00;21.63;;;2.80;99.90;;;;;;4973565;28;20503;-66
2022/01/07 00:22:50;;;;;;;48.43;23.20;;;2.80;99.90;;;;;;4972257;28;20480;-66
2022/01/07 00:25:21;;;;;;;41.80;23.37;;;2.80;99.90;;;;;;4973380;28;20474;-65
2022/01/07 00:27:50;;;;;;;47.87;23.30;;;2.80;99.90;;;;;;4972936;28;20465;-66
2022/01/07 00:30:20;;;;;;;43.70;22.30;;;2.80;99.90;;;;;;4973209;28;20477;-66
2022/01/07 00:32:49;;;;;;;39.53;21.57;;;2.80;99.90;;;;;;4972560;28;20475;-65
2022/01/07 00:35:19;;;;;;;40.90;23.50;;;2.80;99.90;;;;;;4972899;28;20557;-66
2022/01/07 00:37:48;;;;;;;46.50;23.17;;;2.80;99.90;;;;;;4972791;28;20466;-66
2022/01/07 00:40:22;;;;;;;37.53;20.43;;;2.80;99.90;;;;;;4973300;28;20530;-66
2022/01/07 00:42:51;;;;;;;40.70;21.37;;;2.80;99.90;;;;;;4972364;28;20576;-66
2022/01/07 00:45:20;;;;;;;42.33;22.60;;;2.80;99.90;;;;;;4953745;28;20890;-66
2022/01/07 00:47:49;;;;;;;40.07;23.10;;;2.90;99.90;;;;;;4966144;28;20484;-65
2022/01/07 00:50:19;;;;;;;45.20;21.97;;;2.90;99.90;;;;;;4972764;28;20521;-66
2022/01/07 00:52:48;;;;;;;36.97;22.90;;;2.80;99.90;;;;;;4972049;28;20831;-65
2022/01/07 00:55:18;;;;;;;41.63;23.07;;;2.80;99.90;;;;;;4972739;28;20532;-66
2022/01/07 00:57:49;;;;;;;39.43;22.63;;;2.80;99.90;;;;;;4972419;28;20973;-66
2022/01/07 01:00:20;;;;;;;46.30;22.17;;;2.80;99.90;;;;;;4972627;28;20490;-65
2022/01/07 01:02:48;;;;;;;42.73;21.43;;;2.70;99.90;;;;;;4971908;28;20482;-66
2022/01/07 01:05:17;;;;;;;39.30;22.63;;;2.80;99.90;;;;;;4972623;28;20474;-65
2022/01/07 01:07:45;;;;;;;43.13;22.47;;;2.80;99.90;;;;;;4971663;28;20489;-65
2022/01/07 01:10:19;;;;;;;39.30;22.40;;;2.80;99.90;;;;;;4972443;28;20899;-66
2022/01/07 01:12:50;;;;;;;34.80;20.03;;;2.80;99.90;;;;;;4972201;28;20549;-65
2022/01/07 01:15:21;;;;;;;41.50;21.33;;;2.80;99.90;;;;;;4972441;28;20483;-66
2022/01/07 01:18:05;;;;;;;37.55;20.67;;;2.80;99.90;;;;;;2130452;28;10023750;-65
2022/01/07 01:20:33;;;;;;;41.23;20.90;;;2.80;99.90;;;;;;4284025;28;10000870;-66
2022/01/07 01:23:02;;;;;;;38.90;21.60;;;2.80;99.90;;;;;;4966607;28;20832;-65
2022/01/07 01:25:31;;;;;;;35.40;20.00;;;2.80;99.90;;;;;;4964737;28;20527;-65
2022/01/07 01:28:02;;;;;;;44.17;21.13;;;2.80;99.90;;;;;;4974721;28;20542;-66
2022/01/07 01:30:32;;;;;;;35.03;19.50;;;2.80;99.90;;;;;;4972081;28;20552;-65
2022/01/07 01:33:01;;;;;;;34.53;18.73;;;2.80;99.90;;;;;;4972312;28;20554;-66
2022/01/07 01:35:29;;;;;;;35.37;18.90;;;2.80;99.90;;;;;;4972119;28;20479;-66
2022/01/07 01:37:58;;;;;;;37.00;19.57;;;2.90;99.90;;;;;;4972057;28;20478;-66
2022/01/07 01:40:26;;;;;;;40.50;20.03;;;2.80;99.90;;;;;;4972072;28;20984;-65
2022/01/07 01:42:56;;;;;;;37.83;19.87;;;2.80;99.90;;;;;;4971556;28;20815;-65
2022/01/07 01:45:26;;;;;;;36.33;18.97;;;2.90;99.90;;;;;;4969669;28;20501;-65
2022/01/07 01:47:55;;;;;;;35.27;18.60;;;2.90;99.90;;;;;;4971667;28;20494;-65
2022/01/07 01:50:24;;;;;;;33.73;17.60;;;2.90;99.90;;;;;;4972101;28;20989;-66
2022/01/07 01:52:54;;;;;;;32.37;16.60;;;2.90;99.90;;;;;;4971921;28;20631;-66
2022/01/07 01:55:25;;;;;;;28.20;15.57;;;2.90;99.90;;;;;;4972115;28;20551;-66
2022/01/07 01:57:55;;;;;;;31.40;17.53;;;2.90;99.90;;;;;;4964352;28;20541;-66
2022/01/07 02:00:27;;;;;;;30.17;17.17;;;2.90;99.90;;;;;;4931248;28;20483;-66
2022/01/07 02:02:56;;;;;;;32.97;17.27;;;2.90;99.90;;;;;;4943615;28;21658;-65
2022/01/07 02:05:26;;;;;;;28.83;16.50;;;2.90;99.90;;;;;;4945284;28;20532;-65
2022/01/07 02:07:55;;;;;;;26.53;15.67;;;3.00;99.90;;;;;;4947617;28;20838;-66
2022/01/07 02:10:23;;;;;;;29.90;15.97;;;2.90;99.90;;;;;;4952489;28;20530;-66
2022/01/07 02:12:51;;;;;;;25.47;14.43;;;2.90;99.90;;;;;;4950758;28;20535;-65
2022/01/07 02:15:20;;;;;;;27.70;15.23;;;2.90;99.90;;;;;;4934369;29;20525;-65
2022/01/07 02:17:53;;;;;;;25.33;14.30;;;2.90;99.90;;;;;;4945543;28;20476;-65
2022/01/07 02:20:25;;;;;;;29.07;15.50;;;2.90;99.90;;;;;;4952592;28;21077;-65
2022/01/07 02:22:54;;;;;;;28.93;15.03;;;3.00;99.90;;;;;;4951529;28;20482;-66
2022/01/07 02:25:23;;;;;;;26.23;14.40;;;3.00;99.90;;;;;;4952161;28;20484;-66
2022/01/07 02:27:52;;;;;;;30.50;14.60;;;3.00;99.90;;;;;;4951863;28;20480;-66
2022/01/07 02:30:23;;;;;;;30.23;14.13;;;3.00;99.90;;;;;;4951987;28;20827;-65
2022/01/07 02:32:51;;;;;;;27.67;13.30;;;3.00;99.90;;;;;;4952217;28;20578;-65
2022/01/07 02:35:28;;;;;;;26.00;14.80;;;3.00;99.90;;;;;;4952198;28;20513;-65
2022/01/07 02:37:56;;;;;;;24.50;13.50;;;3.00;99.90;;;;;;4947454;28;20491;-66
2022/01/07 02:40:25;;;;;;;25.47;13.37;;;3.00;99.90;;;;;;4952584;28;20467;-66
2022/01/07 02:42:54;;;;;;;24.77;13.00;;;3.00;99.90;;;;;;4955605;28;20535;-65
2022/01/07 02:45:22;;;;;;;24.37;12.77;;;3.00;99.90;;;;;;4955489;28;20980;-65
2022/01/07 02:47:53;;;;;;;25.53;12.53;;;3.00;99.90;;;;;;4947045;28;20557;-65
2022/01/07 02:50:25;;;;;;;22.83;12.23;;;3.00;99.90;;;;;;4936676;29;20896;-66
2022/01/07 02:52:54;;;;;;;24.57;12.43;;;3.00;99.90;;;;;;4949653;28;20476;-66
2022/01/07 02:55:24;;;;;;;28.63;12.53;;;3.00;99.90;;;;;;4955803;28;21032;-66
2022/01/07 02:57:53;;;;;;;20.90;10.90;;;3.00;99.90;;;;;;4955569;28;20894;-65
2022/01/07 03:00:22;;;;;;;22.03;12.10;;;3.00;99.90;;;;;;4955380;28;20548;-66
2022/01/07 03:02:52;;;;;;;20.13;10.60;;;3.00;99.90;;;;;;4954957;28;20882;-66
2022/01/07 03:05:21;;;;;;;25.67;10.80;;;3.00;99.90;;;;;;4955723;28;20489;-66
2022/01/07 03:07:51;;;;;;;20.83;11.17;;;3.00;99.90;;;;;;4954627;28;20529;-66
2022/01/07 03:10:22;;;;;;;20.37;10.17;;;3.00;99.90;;;;;;4955417;28;20489;-65
2022/01/07 03:12:50;;;;;;;19.30;10.30;;;3.00;99.90;;;;;;4955140;28;20479;-66
2022/01/07 03:15:18;;;;;;;21.37;10.43;;;3.00;99.90;;;;;;4955193;28;20541;-66
2022/01/07 03:17:47;;;;;;;23.07;10.40;;;3.00;99.90;;;;;;4955276;28;20818;-66
2022/01/07 03:20:27;;;;;;;17.65;9.00;;;3.10;99.90;;;;;;2719425;28;10003043;-66
2022/01/07 03:22:57;;;;;;;15.80;9.27;;;3.10;99.90;;;;;;3942578;28;10001651;-66
2022/01/07 03:25:25;;;;;;;18.33;9.10;;;3.10;99.90;;;;;;4973771;28;20478;-66
2022/01/07 03:27:54;;;;;;;23.50;8.90;;;3.10;99.90;;;;;;4974226;28;20885;-66
2022/01/07 03:30:22;;;;;;;18.60;9.80;;;3.10;99.90;;;;;;4974365;28;20470;-65
2022/01/07 03:32:50;;;;;;;17.70;8.93;;;3.10;99.90;;;;;;4974162;28;21003;-65
2022/01/07 03:35:19;;;;;;;17.13;8.73;;;3.10;99.90;;;;;;4974374;28;20883;-66
2022/01/07 03:37:49;;;;;;;16.70;8.97;;;3.10;99.90;;;;;;4972056;28;20507;-65
2022/01/07 03:40:20;;;;;;;17.50;8.93;;;3.10;99.90;;;;;;4974166;28;20539;-65
2022/01/07 03:42:49;;;;;;;17.50;9.03;;;3.10;99.90;;;;;;4973873;28;20463;-66
2022/01/07 03:45:20;;;;;;;21.43;9.37;;;3.00;99.90;;;;;;4974086;28;20493;-66
2022/01/07 03:47:49;;;;;;;14.47;8.77;;;3.00;99.90;;;;;;4973565;28;20471;-66
2022/01/07 03:50:20;;;;;;;18.83;7.97;;;3.00;99.90;;;;;;4974020;28;20563;-66
2022/01/07 03:52:49;;;;;;;16.10;8.67;;;3.00;99.90;;;;;;4973566;28;20557;-65
2022/01/07 03:55:22;;;;;;;18.63;9.27;;;3.00;99.90;;;;;;4973588;28;20947;-65
2022/01/07 03:57:50;;;;;;;14.07;7.90;;;2.90;99.90;;;;;;4973418;28;20474;-65
2022/01/07 04:00:22;;;;;;;19.20;8.87;;;3.00;99.90;;;;;;4973888;28;20488;-65
2022/01/07 04:02:50;;;;;;;20.30;8.53;;;3.00;99.90;;;;;;4973517;28;20533;-65
2022/01/07 04:05:22;;;;;;;21.57;9.33;;;2.90;99.90;;;;;;4973934;28;20824;-66
2022/01/07 04:07:51;;;;;;;17.50;8.30;;;2.90;99.90;;;;;;4966533;28;20485;-65
2022/01/07 04:10:21;;;;;;;15.87;9.07;;;2.90;99.90;;;;;;4954466;28;20556;-65
2022/01/07 04:12:50;;;;;;;17.70;8.77;;;2.80;99.90;;;;;;4966829;28;20477;-66
2022/01/07 04:15:18;;;;;;;18.47;8.93;;;2.90;99.90;;;;;;4973661;28;20990;-65
2022/01/07 04:17:50;;;;;;;17.10;8.80;;;2.80;99.90;;;;;;4973256;28;20472;-66
2022/01/07 04:20:20;;;;;;;17.33;8.57;;;2.80;99.90;;;;;;4973353;28;20496;-65
2022/01/07 04:22:49;;;;;;;17.60;9.30;;;2.80;99.90;;;;;;4973028;28;20558;-65
2022/01/07 04:25:18;;;;;;;15.03;8.87;;;2.80;99.90;;;;;;4973491;28;20529;-66
2022/01/07 04:27:50;;;;;;;14.93;9.97;;;2.70;99.90;;;;;;4973317;28;20467;-66
2022/01/07 04:30:19;;;;;;;20.00;9.40;;;2.70;99.90;;;;;;4973293;28;20521;-66
2022/01/07 04:32:48;;;;;;;17.93;9.60;;;2.70;99.90;;;;;;4972941;28;20497;-66
2022/01/07 04:35:17;;;;;;;17.57;9.03;;;2.70;99.90;;;;;;4973262;28;20503;-66
2022/01/07 04:37:46;;;;;;;18.10;9.80;;;2.70;99.90;;;;;;4967096;28;20473;-66
2022/01/07 04:40:17;;;;;;;17.93;9.10;;;2.60;99.90;;;;;;4953920;28;20884;-65
2022/01/07 04:42:45;;;;;;;21.47;10.03;;;2.60;99.90;;;;;;4965338;28;20476;-65
2022/01/07 04:45:15;;;;;;;15.33;9.47;;;2.60;99.90;;;;;;4973020;28;20477;-66
2022/01/07 04:47:43;;;;;;;17.10;10.00;;;2.60;99.90;;;;;;4972690;28;20478;-66
2022/01/07 04:50:15;;;;;;;16.17;10.47;;;2.60;99.90;;;;;;4972818;28;20493;-66
2022/01/07 04:52:44;;;;;;;16.10;9.53;;;2.60;99.90;;;;;;4972673;28;20920;-66
2022/01/07 04:55:15;;;;;;;19.10;10.33;;;2.50;99.90;;;;;;4973031;28;20572;-65
2022/01/07 04:57:44;;;;;;;16.63;11.37;;;2.60;99.90;;;;;;4972502;28;20479;-66
2022/01/07 05:00:15;;;;;;;17.40;10.63;;;2.50;99.90;;;;;;4972679;28;20480;-66
2022/01/07 05:02:44;;;;;;;17.30;10.60;;;2.50;99.90;;;;;;4972046;28;21020;-65
2022/01/07 05:05:13;;;;;;;19.73;11.60;;;2.50;99.90;;;;;;4972623;28;20553;-65
2022/01/07 05:07:41;;;;;;;17.17;10.60;;;2.40;99.90;;;;;;4971338;28;21055;-65
2022/01/07 05:10:11;;;;;;;16.33;11.73;;;2.40;99.90;;;;;;4972534;28;20554;-65
2022/01/07 05:12:42;;;;;;;17.43;11.27;;;2.40;99.90;;;;;;4972249;28;20476;-66
2022/01/07 05:15:11;;;;;;;17.93;11.17;;;2.40;99.90;;;;;;4972562;28;20958;-66
2022/01/07 05:17:44;;;;;;;16.23;10.87;;;2.40;99.90;;;;;;4942661;28;20480;-65
2022/01/07 05:20:14;;;;;;;15.40;10.95;;;2.40;99.90;;;;;;992021;28;10001969;-66
2022/01/07 05:22:43;;;;;;;15.20;10.70;;;2.40;99.90;;;;;;4971693;28;20245;-66
2022/01/07 05:25:13;;;;;;;20.33;11.53;;;2.40;99.90;;;;;;4972361;28;20484;-66
2022/01/07 05:27:41;;;;;;;20.30;11.67;;;2.30;99.90;;;;;;4972098;28;20820;-66
2022/01/07 05:30:12;;;;;;;17.10;11.60;;;2.30;99.90;;;;;;4971195;28;20478;-66
2022/01/07 05:32:42;;;;;;;18.50;11.40;;;2.30;99.90;;;;;;4971417;28;20477;-66
2022/01/07 05:35:10;;;;;;;18.50;11.97;;;2.30;99.90;;;;;;4971611;28;20862;-65
2022/01/07 05:37:38;;;;;;;19.70;12.43;;;2.30;99.90;;;;;;4971347;28;21105;-66
2022/01/07 05:40:08;;;;;;;16.50;11.33;;;2.40;99.90;;;;;;4971953;28;20466;-65
2022/01/07 05:42:36;;;;;;;15.10;11.60;;;2.30;99.90;;;;;;4971890;28;20560;-65
2022/01/07 05:45:05;;;;;;;17.60;11.40;;;2.40;99.90;;;;;;4964230;28;20502;-66
2022/01/07 05:47:33;;;;;;;16.60;11.77;;;2.40;99.90;;;;;;4972004;28;20818;-66
2022/01/07 05:50:03;;;;;;;18.20;11.97;;;2.40;99.90;;;;;;4972134;28;20521;-66
2022/01/07 05:52:31;;;;;;;20.63;13.20;;;2.50;99.90;;;;;;4971654;28;20485;-66
2022/01/07 05:54:59;;;;;;;17.63;12.00;;;2.60;99.90;;;;;;4972167;28;20825;-65
2022/01/07 05:57:28;;;;;;;19.60;12.03;;;2.50;99.90;;;;;;4971312;28;20510;-66
2022/01/07 05:59:56;;;;;;;16.33;12.37;;;2.40;99.90;;;;;;4971699;28;21010;-66
2022/01/07 06:02:25;;;;;;;20.20;11.90;;;2.40;99.90;;;;;;4971394;28;20474;-65
2022/01/07 06:04:54;;;;;;;16.43;11.40;;;2.30;99.90;;;;;;4971823;28;20824;-66
2022/01/07 06:07:23;;;;;;;17.23;12.17;;;2.30;99.90;;;;;;4968008;28;20482;-66
2022/01/07 06:09:52;;;;;;;16.80;12.00;;;2.40;99.90;;;;;;4950714;28;21025;-66
2022/01/07 06:12:20;;;;;;;18.60;11.90;;;2.40;99.90;;;;;;4962492;28;20477;-66
2022/01/07 06:14:48;;;;;;;17.43;12.10;;;2.30;99.90;;;;;;4979991;28;20540;-66
2022/01/07 06:17:18;;;;;;;18.20;11.93;;;2.30;99.90;;;;;;4966745;28;20519;-66
2022/01/07 06:19:46;;;;;;;20.90;12.87;;;2.30;99.90;;;;;;4956930;28;20567;-66
2022/01/07 06:22:15;;;;;;;20.33;13.17;;;2.30;99.90;;;;;;4973611;28;20471;-66
2022/01/07 06:24:45;;;;;;;19.03;13.13;;;2.30;99.90;;;;;;4975385;28;20487;-66
2022/01/07 06:27:13;;;;;;;19.23;12.97;;;2.30;99.90;;;;;;4975381;28;20570;-66
2022/01/07 06:29:45;;;;;;;17.07;12.40;;;2.30;99.90;;;;;;4975564;28;20983;-66
2022/01/07 06:32:14;;;;;;;19.40;11.60;;;2.30;99.90;;;;;;4975072;28;20470;-66
2022/01/07 06:34:42;;;;;;;15.40;12.63;;;2.40;99.90;;;;;;4975239;28;20536;-66
2022/01/07 06:37:12;;;;;;;17.43;12.17;;;2.40;99.90;;;;;;4974698;28;20809;-65
2022/01/07 06:39:40;;;;;;;17.97;12.13;;;2.40;99.90;;;;;;4974409;28;20480;-66
2022/01/07 06:42:11;;;;;;;18.60;13.53;;;2.40;99.90;;;;;;4975557;28;20976;-66
2022/01/07 06:44:39;;;;;;;16.63;12.53;;;2.50;99.90;;;;;;4975160;28;20482;-66
2022/01/07 06:47:08;;;;;;;22.63;13.43;;;2.40;99.90;;;;;;4974961;28;21120;-66
2022/01/07 06:49:37;;;;;;;17.93;12.67;;;2.40;99.90;;;;;;4975245;28;20532;-66
2022/01/07 06:52:07;;;;;;;18.50;13.20;;;2.50;99.90;;;;;;4974772;28;20470;-65
2022/01/07 06:54:35;;;;;;;18.13;12.73;;;2.40;99.90;;;;;;4982819;28;20481;-66
2022/01/07 06:57:05;;;;;;;16.43;12.67;;;2.40;99.90;;;;;;4974627;28;20541;-66
2022/01/07 06:59:34;;;;;;;15.90;11.77;;;2.50;99.90;;;;;;4955481;28;20479;-66
2022/01/07 07:02:04;;;;;;;21.40;12.77;;;2.50;99.90;;;;;;4961624;28;20522;-65
2022/01/07 07:04:32;;;;;;;18.73;12.67;;;2.50;99.90;;;;;;4967373;28;20478;-66
2022/01/07 07:07:01;;;;;;;19.40;13.30;;;2.40;99.90;;;;;;4955112;28;20579;-66
2022/01/07 07:09:29;;;;;;;18.60;12.07;;;2.50;99.90;;;;;;4954997;28;20486;-65
2022/01/07 07:11:57;;;;;;;19.23;13.83;;;2.50;99.90;;;;;;4955191;28;21005;-65
2022/01/07 07:14:25;;;;;;;21.70;14.40;;;2.50;99.90;;;;;;4955063;28;20542;-66
2022/01/07 07:16:55;;;;;;;19.17;13.53;;;2.50;99.90;;;;;;4955366;28;20495;-66
2022/01/07 07:19:24;;;;;;;18.00;12.63;;;2.50;99.90;;;;;;4924592;28;20542;-65
2022/01/07 07:21:52;;;;;;;18.93;12.33;;;2.50;99.90;;;;;;981242;28;10002092;-65
2022/01/07 07:24:20;;;;;;;15.43;12.57;;;2.50;99.90;;;;;;4960821;28;20259;-66
2022/01/07 07:26:48;;;;;;;19.17;13.60;;;2.50;99.90;;;;;;4953837;28;20524;-65
2022/01/07 07:29:16;;;;;;;15.50;12.57;;;2.60;99.90;;;;;;4954789;28;20468;-66
2022/01/07 07:31:49;;;;;;;17.93;12.50;;;2.60;99.90;;;;;;4954766;28;20488;-66
2022/01/07 07:34:44;;;;;;;20.30;13.00;;;2.60;99.90;;;;;;4954696;28;20471;-65
2022/01/07 07:37:13;;;;;;;18.17;12.30;;;2.60;99.90;;;;;;4973434;28;20476;-66
2022/01/07 07:39:41;;;;;;;18.30;13.00;;;2.60;99.90;;;;;;4966483;28;20479;-65
2022/01/07 07:42:10;;;;;;;19.87;13.53;;;2.60;99.90;;;;;;4974187;28;20508;-66
2022/01/07 07:44:39;;;;;;;20.13;13.33;;;2.60;99.90;;;;;;4972916;28;20491;-66
2022/01/07 07:47:07;;;;;;;20.67;12.87;;;2.60;99.90;;;;;;4974093;28;20459;-66
2022/01/07 07:49:37;;;;;;;19.50;13.03;;;2.60;99.90;;;;;;4973792;28;20532;-66
2022/01/07 07:52:06;;;;;;;19.63;14.13;;;2.60;99.90;;;;;;4974273;28;20485;-66
2022/01/07 07:54:35;;;;;;;18.73;13.70;;;2.60;99.90;;;;;;4976158;28;20441;-66
2022/01/07 07:57:03;;;;;;;15.93;13.43;;;2.50;99.90;;;;;;4973263;28;20495;-66
2022/01/07 07:59:31;;;;;;;19.93;13.80;;;2.60;99.90;;;;;;4973719;28;21299;-66
2022/01/07 08:02:00;;;;;;;17.20;13.27;;;2.50;99.90;;;;;;4973637;28;20469;-67
2022/01/07 08:04:29;;;;;;;20.00;14.17;;;2.50;99.90;;;;;;4973233;28;20503;-66
2022/01/07 08:06:58;;;;;;;17.17;13.87;;;2.50;99.90;;;;;;4973444;28;20864;-66
2022/01/07 08:09:27;;;;;;;20.90;13.70;;;2.50;99.90;;;;;;4968972;28;20476;-66
2022/01/07 08:12:04;;;;;;;18.87;13.93;;;2.60;99.90;;;;;;4961615;28;20490;-65
2022/01/07 08:17:18;;;;;;;16.40;13.13;;;2.50;99.90;;;;;;4968632;28;20490;-65
2022/01/07 08:19:47;;;;;;;15.83;13.30;;;2.50;99.90;;;;;;4969525;28;20506;-66
2022/01/07 08:22:17;;;;;;;17.40;13.87;;;2.50;99.90;;;;;;4970125;28;20484;-66
2022/01/07 08:24:45;;;;;;;17.33;13.27;;;2.50;99.90;;;;;;4971193;28;20479;-66
2022/01/07 08:27:13;;;;;;;14.67;12.90;;;2.40;99.90;;;;;;4972272;28;21009;-65
2022/01/07 08:30:10;;;;;;;15.13;12.53;;;2.40;99.90;;;;;;4970356;28;20547;-65
2022/01/07 08:35:24;;;;;;;16.53;13.07;;;2.40;99.90;;;;;;4963971;28;20537;-66
2022/01/07 08:37:53;;;;;;;18.37;13.73;;;2.40;99.90;;;;;;4961961;28;20476;-66
2022/01/07 08:40:22;;;;;;;16.10;13.20;;;2.40;99.90;;;;;;4966073;28;20490;-66
2022/01/07 08:42:51;;;;;;;18.23;13.93;;;2.30;99.90;;;;;;4970795;28;20480;-66
2022/01/07 08:45:19;;;;;;;17.30;13.87;;;2.30;99.90;;;;;;4953705;28;20479;-66
2022/01/07 08:47:48;;;;;;;15.40;13.67;;;2.30;99.90;;;;;;4954681;28;20480;-65
2022/01/07 08:50:16;;;;;;;15.53;13.67;;;2.30;99.90;;;;;;4972594;28;20501;-65
2022/01/07 08:52:44;;;;;;;16.17;12.80;;;2.30;99.90;;;;;;4972127;28;20504;-65
2022/01/07 08:55:14;;;;;;;17.73;13.57;;;2.30;99.90;;;;;;4972481;28;20474;-66
2022/01/07 08:57:42;;;;;;;16.77;14.10;;;2.30;99.90;;;;;;4971277;28;20487;-65
2022/01/07 09:00:11;;;;;;;16.93;14.50;;;2.40;99.90;;;;;;4972342;28;20483;-66
2022/01/07 09:02:40;;;;;;;17.77;13.97;;;2.30;99.90;;;;;;4972111;28;20991;-66
2022/01/07 09:05:09;;;;;;;19.17;14.77;;;2.30;99.90;;;;;;4953083;28;20476;-65
2022/01/07 09:07:37;;;;;;;16.17;14.13;;;2.40;99.90;;;;;;4972698;28;21027;-65
2022/01/07 09:10:06;;;;;;;17.83;13.97;;;2.40;99.90;;;;;;4972480;28;20483;-66
2022/01/07 09:12:35;;;;;;;18.63;15.00;;;2.40;99.90;;;;;;4972100;28;20518;-65
2022/01/07 09:15:04;;;;;;;19.13;15.30;;;2.40;99.90;;;;;;4967958;28;20948;-65
2022/01/07 09:17:34;;;;;;;16.53;14.77;;;2.50;99.90;;;;;;4971862;28;20965;-65
2022/01/07 09:20:15;;;;;;;17.47;14.50;;;2.50;99.90;;;;;;4322469;28;10000812;-65
2022/01/07 09:22:44;;;;;;;17.95;15.13;;;2.50;99.90;;;;;;2052803;28;10002006;-65
2022/01/07 09:25:12;;;;;;;18.23;15.23;;;2.50;99.90;;;;;;4968009;28;20240;-66
2022/01/07 09:27:41;;;;;;;20.10;15.37;;;2.50;99.90;;;;;;4960872;28;20538;-66
2022/01/07 09:30:11;;;;;;;19.53;15.80;;;2.50;99.90;;;;;;4963889;28;20462;-65
2022/01/07 09:32:40;;;;;;;18.80;16.17;;;2.50;99.90;;;;;;4972178;28;20478;-66
2022/01/07 09:35:09;;;;;;;19.63;17.13;;;2.60;99.90;;;;;;4968325;28;20854;-65
2022/01/07 09:37:37;;;;;;;21.50;16.67;;;2.60;99.90;;;;;;4970153;28;20832;-65
2022/01/07 09:40:06;;;;;;;19.80;16.40;;;2.60;99.90;;;;;;4972046;28;20475;-65
2022/01/07 09:42:35;;;;;;;20.03;17.53;;;2.60;99.90;;;;;;4973148;28;20480;-65
2022/01/07 09:45:05;;;;;;;21.67;17.57;;;2.60;99.90;;;;;;4971754;28;20466;-65
2022/01/07 09:47:34;;;;;;;19.77;16.73;;;2.70;99.90;;;;;;4971534;28;20968;-65
2022/01/07 09:50:10;;;;;;;23.53;17.13;;;2.70;99.90;;;;;;4971899;28;20487;-66
2022/01/07 09:52:39;;;;;;;19.20;16.57;;;2.70;99.90;;;;;;4971778;28;21001;-65
2022/01/07 09:55:08;;;;;;;19.53;17.43;;;2.70;99.90;;;;;;4971707;28;20529;-65
2022/01/07 09:57:37;;;;;;;21.97;17.87;;;2.70;99.90;;;;;;4971173;28;20565;-65
2022/01/07 10:00:11;;;;;;;25.57;19.07;;;2.70;99.90;;;;;;4971158;28;20961;-65
2022/01/07 10:02:58;;;;;;;21.00;18.20;;;2.70;99.90;;;;;;4966712;28;20547;-65
2022/01/07 10:05:26;;;;;;;22.20;19.20;;;2.70;99.90;;;;;;4969156;28;20570;-65
2022/01/07 10:07:54;;;;;;;24.93;19.33;;;2.80;99.90;;;;;;4970135;28;20495;-65
2022/01/07 10:10:22;;;;;;;24.77;19.97;;;2.80;99.90;;;;;;4972786;28;21045;-65
2022/01/07 10:12:53;;;;;;;22.77;19.70;;;2.80;99.90;;;;;;4970267;28;20988;-65
2022/01/07 10:15:24;;;;;;;23.90;19.93;;;2.80;99.90;;;;;;4970636;28;20484;-65
2022/01/07 10:17:58;;;;;;;24.23;20.20;;;2.80;99.90;;;;;;4970271;28;20854;-66
2022/01/07 10:20:28;;;;;;;25.33;20.07;;;2.90;99.90;;;;;;4970551;28;20929;-65
2022/01/07 10:23:00;;;;;;;25.03;20.57;;;2.90;99.90;;;;;;4969885;28;20539;-65
2022/01/07 10:25:30;;;;;;;27.07;21.20;;;2.90;99.90;;;;;;4969339;28;20551;-65
2022/01/07 10:28:04;;;;;;;26.63;21.03;;;2.90;99.90;;;;;;4965887;28;20480;-66
2022/01/07 10:30:38;;;;;;;29.77;23.30;;;3.00;99.90;;;;;;4967590;28;20492;-65
2022/01/07 10:33:18;;;;;;;29.77;22.20;;;3.00;99.90;;;;;;4947159;28;21425;-66
2022/01/07 10:35:47;;;;;;;27.83;22.77;;;3.00;99.90;;;;;;4965374;28;20487;-65
2022/01/07 10:38:19;;;;;;;27.33;22.67;;;3.00;99.90;;;;;;4968777;28;20467;-66
2022/01/07 10:40:49;;;;;;;30.37;22.60;;;3.10;99.90;;;;;;4971444;28;20477;-66
2022/01/07 10:43:20;;;;;;;26.67;21.77;;;3.10;99.90;;;;;;4970763;28;20841;-65
2022/01/07 10:45:52;;;;;;;28.77;22.87;;;3.10;99.90;;;;;;4966232;28;20491;-65
2022/01/07 10:48:23;;;;;;;28.70;23.50;;;3.20;99.90;;;;;;4965752;28;20488;-66
2022/01/07 10:50:52;;;;;;;30.37;24.10;;;3.10;99.90;;;;;;4966319;28;20478;-66
2022/01/07 10:53:23;;;;;;;29.23;23.30;;;3.20;99.90;;;;;;4965819;28;20496;-65
2022/01/07 10:56:04;;;;;;;30.57;23.93;;;3.20;99.90;;;;;;4966189;28;20478;-65
2022/01/07 10:58:55;;;;;;;32.90;24.20;;;3.20;99.90;;;;;;4965330;28;20883;-66
2022/01/07 11:01:40;;;;;;;32.10;25.47;;;3.20;99.90;;;;;;4966167;28;20476;-65
2022/01/07 11:04:11;;;;;;;30.23;24.03;;;3.30;99.90;;;;;;4969523;28;20466;-66
2022/01/07 11:06:40;;;;;;;39.00;25.17;;;3.20;99.90;;;;;;4969167;28;20552;-65
2022/01/07 11:09:10;;;;;;;31.13;24.77;;;3.30;99.90;;;;;;4969227;28;20495;-66
2022/01/07 11:11:46;;;;;;;36.47;26.60;;;3.30;99.90;;;;;;4962809;28;20497;-65
2022/01/07 11:14:18;;;;;;;35.27;27.47;;;3.30;99.90;;;;;;4978004;28;20479;-65
2022/01/07 11:16:49;;;;;;;35.80;26.17;;;3.30;99.90;;;;;;4971392;28;20476;-66
2022/01/07 11:19:20;;;;;;;30.20;24.25;;;3.30;99.90;;;;;;1672909;28;10022774;-65
2022/01/07 11:21:54;;;;;;;32.40;25.67;;;3.30;99.90;;;;;;4287396;28;10000875;-65
2022/01/07 11:24:39;;;;;;;34.30;26.40;;;3.40;99.90;;;;;;4974039;28;20512;-65
2022/01/07 11:27:09;;;;;;;34.67;25.97;;;3.40;99.90;;;;;;4974281;28;20469;-66
2022/01/07 11:29:39;;;;;;;32.77;26.07;;;3.40;99.90;;;;;;4974379;28;20480;-66
2022/01/07 11:32:34;;;;;;;32.67;26.03;;;3.40;99.90;;;;;;4974439;28;20510;-65
2022/01/07 11:35:47;;;;;;;32.83;26.03;;;3.50;99.90;;;;;;4974160;28;20503;-65
2022/01/07 11:38:39;;;;;;;34.67;26.20;;;3.60;99.90;;;;;;4973506;28;20862;-66
2022/01/07 11:41:11;;;;;;;34.10;25.93;;;3.60;99.90;;;;;;4974404;28;20470;-66
2022/01/07 11:43:45;;;;;;;36.20;26.07;;;3.60;99.90;;;;;;4974162;28;20483;-66
2022/01/07 11:46:31;;;;;;;34.70;26.70;;;3.70;99.90;;;;;;4973547;28;21069;-66
2022/01/07 11:49:03;;;;;;;33.47;25.90;;;3.70;99.90;;;;;;4954971;28;20557;-65
2022/01/07 11:51:40;;;;;;;38.20;27.60;;;3.70;99.90;;;;;;4956687;28;20482;-65
2022/01/07 11:54:13;;;;;;;35.90;27.87;;;3.70;99.90;;;;;;4974105;28;20481;-66
2022/01/07 11:56:43;;;;;;;36.33;27.57;;;3.80;99.90;;;;;;4973792;28;20540;-66
2022/01/07 11:59:23;;;;;;;36.60;27.37;;;3.80;99.90;;;;;;4973749;28;21135;-66
2022/01/07 12:02:04;;;;;;;35.13;25.83;;;3.80;99.90;;;;;;4973741;28;20485;-66
2022/01/07 12:04:35;;;;;;;35.20;25.47;;;3.80;99.90;;;;;;4975561;28;20575;-66
2022/01/07 12:07:05;;;;;;;39.40;28.47;;;3.70;99.90;;;;;;4983144;28;20997;-65
2022/01/07 12:09:41;;;;;;;36.60;26.47;;;3.80;99.90;;;;;;4981929;28;20475;-66
2022/01/07 12:12:12;;;;;;;35.40;26.13;;;3.80;99.90;;;;;;4985759;28;20506;-66
2022/01/07 12:14:43;;;;;;;38.37;28.50;;;3.80;99.90;;;;;;4970608;28;20486;-66
2022/01/07 12:17:15;;;;;;;36.03;27.07;;;3.80;99.90;;;;;;4968622;28;20508;-66
2022/01/07 12:20:16;;;;;;;35.37;26.17;;;3.80;99.90;;;;;;4967475;28;20497;-65
2022/01/07 12:23:03;;;;;;;35.90;26.00;;;3.90;99.90;;;;;;4967386;28;20485;-66
2022/01/07 12:25:31;;;;;;;34.03;25.87;;;3.90;99.90;;;;;;4968537;28;20493;-65
2022/01/07 12:28:01;;;;;;;34.83;26.87;;;3.90;99.90;;;;;;4968228;28;20502;-66
2022/01/07 12:30:31;;;;;;;35.90;26.90;;;3.90;99.90;;;;;;4967629;28;20497;-65
2022/01/07 12:33:07;;;;;;;38.30;27.10;;;3.90;99.90;;;;;;4967721;28;21102;-66
2022/01/07 12:35:35;;;;;;;35.53;26.60;;;3.90;99.90;;;;;;4967909;28;20825;-66
2022/01/07 12:38:19;;;;;;;37.03;26.17;;;3.90;99.90;;;;;;4967885;28;20480;-66
2022/01/07 12:41:01;;;;;;;36.37;26.83;;;3.90;99.90;;;;;;4962384;28;21229;-65
2022/01/07 12:43:35;;;;;;;38.13;26.07;;;4.00;99.90;;;;;;4961799;28;20488;-66
2022/01/07 12:46:06;;;;;;;37.20;27.03;;;4.00;99.90;;;;;;4959301;28;20957;-65
2022/01/07 12:48:37;;;;;;;43.07;25.97;;;4.00;99.90;;;;;;4962221;28;20491;-65
2022/01/07 12:51:06;;;;;;;31.73;25.30;;;4.00;99.90;;;;;;4962886;28;20486;-65
2022/01/07 12:53:36;;;;;;;32.43;23.27;;;4.00;99.90;;;;;;4960944;28;20470;-65
2022/01/07 12:56:26;;;;;;;32.97;25.47;;;4.00;99.90;;;;;;4963108;28;20485;-65
2022/01/07 12:58:55;;;;;;;33.37;25.00;;;4.00;99.90;;;;;;4952933;28;21307;-65
2022/01/07 13:01:28;;;;;;;34.43;24.93;;;4.10;99.90;;;;;;4947422;28;20502;-66